createdAt,value
2023-04-23T00:01:05.570Z,100518.91
2023-04-23T00:03:36.274Z,100520.22
2023-04-23T00:06:06.019Z,100529.69
2023-04-23T00:08:34.608Z,100519.22
2023-04-23T00:11:02.680Z,100523.66
2023-04-23T00:13:29.431Z,100533.69
2023-04-23T00:15:55.933Z,100531.91
2023-04-23T00:18:22.366Z,100530.38
2023-04-23T00:20:48.799Z,100527.56
2023-04-23T00:23:15.246Z,100529.53
2023-04-23T00:25:41.650Z,100532.78
2023-04-23T00:28:08.294Z,100540.13
2023-04-23T00:30:34.728Z,100538.16
2023-04-23T00:33:01.270Z,100545.59
2023-04-23T00:35:27.701Z,100538.03
2023-04-23T00:37:54.089Z,100542.00
2023-04-23T00:40:20.697Z,100544.47
2023-04-23T00:42:48.740Z,100552.59
2023-04-23T00:45:15.356Z,100548.53
2023-04-23T00:47:41.944Z,100555.03
2023-04-23T00:50:08.628Z,100554.47
2023-04-23T00:52:36.038Z,100546.34
2023-04-23T00:55:12.496Z,100555.69
2023-04-23T00:57:39.136Z,100549.06
2023-04-23T01:00:05.887Z,100556.94
2023-04-23T01:02:32.659Z,100544.81
2023-04-23T01:05:00.898Z,100558.94
2023-04-23T01:07:27.717Z,100550.78
2023-04-23T01:09:54.465Z,100552.72
2023-04-23T01:12:20.858Z,100546.81
2023-04-23T01:14:47.724Z,100552.72
2023-04-23T01:17:14.368Z,100544.13
2023-04-23T01:19:41.008Z,100543.63
2023-04-23T01:22:10.062Z,100542.63
2023-04-23T01:24:36.787Z,100550.91
2023-04-23T01:27:03.747Z,100551.75
2023-04-23T01:29:30.632Z,100554.72
2023-04-23T01:31:57.500Z,100563.78
2023-04-23T01:34:23.918Z,100558.16
2023-04-23T01:36:51.064Z,100557.19
2023-04-23T01:39:17.779Z,100562.78
2023-04-23T01:41:44.314Z,100558.91
2023-04-23T01:44:10.805Z,100558.41
2023-04-23T01:46:37.781Z,100562.09
2023-04-23T01:49:04.526Z,100558.16
2023-04-23T01:51:31.108Z,100563.34
2023-04-23T01:53:57.502Z,100564.81
2023-04-23T01:56:26.117Z,100563.09
2023-04-23T01:58:52.526Z,100561.13
2023-04-23T02:01:18.928Z,100567.53
2023-04-23T02:03:46.007Z,100571.47
2023-04-23T02:06:12.828Z,100568.50
2023-04-23T02:08:39.731Z,100568.25
2023-04-23T02:11:09.068Z,100571.47
2023-04-23T02:13:35.726Z,100568.69
2023-04-23T02:16:02.139Z,100563.84
2023-04-23T02:18:28.532Z,100565.97
2023-04-23T02:20:54.967Z,100572.38
2023-04-23T02:23:21.394Z,100574.94
2023-04-23T02:25:47.767Z,100571.69
2023-04-23T02:28:14.204Z,100572.56
2023-04-23T02:30:45.831Z,100565.31
2023-04-23T02:33:12.739Z,100565.88
2023-04-23T02:35:39.138Z,100577.13
2023-04-23T02:38:05.555Z,100581.75
2023-04-23T02:40:31.937Z,100574.28
2023-04-23T02:42:58.313Z,100575.88
2023-04-23T02:45:24.668Z,100577.13
2023-04-23T02:47:53.315Z,100579.34
2023-04-23T02:50:19.778Z,100580.03
2023-04-23T02:52:47.779Z,100580.66
2023-04-23T02:55:14.168Z,100576.22
2023-04-23T02:57:40.976Z,100580.63
2023-04-23T03:00:08.354Z,100577.72
2023-04-23T03:02:35.042Z,100585.25
2023-04-23T03:05:01.803Z,100590.38
2023-04-23T03:07:28.226Z,100584.47
2023-04-23T03:09:54.649Z,100593.94
2023-04-23T03:12:21.278Z,100594.50
2023-04-23T03:14:47.669Z,100602.94
2023-04-23T03:17:14.073Z,100608.94
2023-04-23T03:19:40.555Z,100601.56
2023-04-23T03:22:07.232Z,100592.38
2023-04-23T03:24:34.854Z,100604.69
2023-04-23T03:27:01.257Z,100597.66
2023-04-23T03:29:28.264Z,100595.53
2023-04-23T03:31:54.650Z,100592.88
2023-04-23T03:34:21.336Z,100604.03
2023-04-23T03:36:48.731Z,100596.19
2023-04-23T03:39:15.526Z,100597.97
2023-04-23T03:41:42.151Z,100596.47
2023-04-23T03:44:08.558Z,100600.16
2023-04-23T03:46:35.023Z,100610.75
2023-04-23T03:49:01.492Z,100603.13
2023-04-23T03:51:28.112Z,100616.78
2023-04-23T03:53:54.488Z,100605.75
2023-04-23T03:56:21.410Z,100605.41
2023-04-23T03:58:47.864Z,100604.75
2023-04-23T04:01:14.314Z,100604.94
2023-04-23T04:03:41.082Z,100615.75
2023-04-23T04:06:07.957Z,100610.16
2023-04-23T04:08:34.315Z,100609.66
2023-04-23T04:11:01.161Z,100621.06
2023-04-23T04:13:27.451Z,100617.72
2023-04-23T04:15:53.801Z,100621.06
2023-04-23T04:18:20.888Z,100622.16
2023-04-23T04:20:47.257Z,100618.13
2023-04-23T04:23:13.860Z,100620.53
2023-04-23T04:25:40.750Z,100613.53
2023-04-23T04:28:11.807Z,100621.13
2023-04-23T04:30:39.478Z,100613.84
2023-04-23T04:33:06.152Z,100616.19
2023-04-23T04:35:32.544Z,100617.91
2023-04-23T04:37:59.037Z,100619.50
2023-04-23T04:40:26.531Z,100619.97
2023-04-23T04:42:52.999Z,100622.50
2023-04-23T04:45:19.710Z,100629.09
2023-04-23T04:47:46.113Z,100628.94
2023-04-23T04:50:12.606Z,100630.13
2023-04-23T04:52:39.029Z,100642.22
2023-04-23T04:55:07.085Z,100633.78
2023-04-23T04:57:33.463Z,100635.56
2023-04-23T05:00:03.057Z,100633.56
2023-04-23T05:02:29.582Z,100628.72
2023-04-23T05:04:56.053Z,100633.97
2023-04-23T05:07:22.404Z,100629.31
2023-04-23T05:09:48.859Z,100640.72
2023-04-23T05:12:15.422Z,100635.31
2023-04-23T05:14:41.963Z,100639.75
2023-04-23T05:17:08.564Z,100645.41
2023-04-23T05:19:34.958Z,100640.44
2023-04-23T05:22:03.180Z,100626.13
2023-04-23T05:24:29.627Z,100625.13
2023-04-23T05:26:56.578Z,100632.03
2023-04-23T05:29:23.044Z,100626.59
2023-04-23T05:31:49.446Z,100632.03
2023-04-23T05:34:16.022Z,100634.53
2023-04-23T05:36:42.482Z,100637.53
2023-04-23T05:39:09.222Z,100644.88
2023-04-23T05:41:35.650Z,100657.16
2023-04-23T05:44:02.060Z,100656.63
2023-04-23T05:46:28.736Z,100653.41
2023-04-23T05:48:55.206Z,100654.25
2023-04-23T05:51:22.122Z,100652.94
2023-04-23T05:53:48.509Z,100651.78
2023-04-23T05:56:14.942Z,100650.34
2023-04-23T05:58:41.414Z,100650.81
2023-04-23T06:01:07.882Z,100644.63
2023-04-23T06:03:34.838Z,100646.63
2023-04-23T06:06:01.404Z,100648.88
2023-04-23T06:08:28.065Z,100653.84
2023-04-23T06:10:56.042Z,100646.41
2023-04-23T06:13:22.463Z,100645.91
2023-04-23T06:15:49.139Z,100641.72
2023-04-23T06:18:15.602Z,100634.38
2023-04-23T06:20:42.230Z,100643.69
2023-04-23T06:23:08.624Z,100641.00
2023-04-23T06:25:34.998Z,100642.22
2023-04-23T06:28:01.417Z,100631.38
2023-04-23T06:30:27.833Z,100634.34
2023-04-23T06:32:54.213Z,100638.00
2023-04-23T06:35:20.626Z,100628.66
2023-04-23T06:37:46.985Z,100629.66
2023-04-23T06:40:13.389Z,100631.34
2023-04-23T06:42:39.838Z,100626.22
2023-04-23T06:45:07.089Z,100625.44
2023-04-23T06:47:33.638Z,100622.50
2023-04-23T06:50:00.233Z,100627.06
2023-04-23T06:52:27.018Z,100626.88
2023-04-23T06:54:53.559Z,100639.47
2023-04-23T06:57:19.974Z,100639.50
2023-04-23T06:59:46.471Z,100629.81
2023-04-23T07:02:12.939Z,100615.22
2023-04-23T07:04:39.819Z,100617.63
2023-04-23T07:07:07.018Z,100613.38
2023-04-23T07:09:33.390Z,100627.00
2023-04-23T07:11:59.794Z,100623.44
2023-04-23T07:14:26.406Z,100623.13
2023-04-23T07:16:54.501Z,100623.88
2023-04-23T07:19:20.984Z,100623.13
2023-04-23T07:21:47.382Z,100640.53
2023-04-23T07:24:13.799Z,100630.00
2023-04-23T07:26:40.265Z,100631.38
2023-04-23T07:29:07.943Z,100627.63
2023-04-23T07:31:34.618Z,100628.28
2023-04-23T07:34:01.316Z,100628.22
2023-04-23T07:36:28.219Z,100630.59
2023-04-23T07:38:54.759Z,100624.94
2023-04-23T07:41:21.214Z,100628.56
2023-04-23T07:43:47.617Z,100620.34
2023-04-23T07:46:14.916Z,100617.50
2023-04-23T07:48:41.322Z,100614.34
2023-04-23T07:51:08.308Z,100616.59
2023-04-23T07:53:35.025Z,100612.94
2023-04-23T07:56:01.470Z,100615.38
2023-04-23T07:58:27.842Z,100616.78
2023-04-23T08:00:54.251Z,100614.19
2023-04-23T08:03:21.279Z,100615.13
2023-04-23T08:05:48.218Z,100619.63
2023-04-23T08:08:14.678Z,100616.34
2023-04-23T08:10:41.207Z,100605.59
2023-04-23T08:13:11.402Z,100608.78
2023-04-23T08:15:38.004Z,100607.28
2023-04-23T08:18:04.800Z,100590.81
2023-04-23T08:20:32.382Z,100594.22
2023-04-23T08:22:59.030Z,100578.16
2023-04-23T08:25:25.504Z,100585.13
2023-04-23T08:27:52.426Z,100582.19
2023-04-23T08:30:18.846Z,100584.50
2023-04-23T08:32:49.279Z,100575.69
2023-04-23T08:35:15.707Z,100590.81
2023-04-23T08:37:42.452Z,100571.50
2023-04-23T08:40:09.596Z,100570.72
2023-04-23T08:43:19.075Z,100565.41
2023-04-23T08:45:49.152Z,100564.19
2023-04-23T08:48:15.732Z,100567.44
2023-04-23T08:50:43.177Z,100561.25
2023-04-23T08:53:10.050Z,100563.94
2023-04-23T08:55:36.684Z,100557.28
2023-04-23T08:58:06.290Z,100557.41
2023-04-23T09:00:34.583Z,100557.59
2023-04-23T09:03:01.748Z,100558.34
2023-04-23T09:05:28.642Z,100564.25
2023-04-23T09:07:56.681Z,100556.56
2023-04-23T09:10:23.507Z,100563.91
2023-04-23T09:12:49.892Z,100558.75
2023-04-23T09:15:17.050Z,100553.44
2023-04-23T09:17:45.192Z,100556.97
2023-04-23T09:20:13.036Z,100552.91
2023-04-23T09:22:47.434Z,100553.84
2023-04-23T09:25:17.334Z,100547.31
2023-04-23T09:27:44.551Z,100535.06
2023-04-23T09:30:11.781Z,100541.38
2023-04-23T09:32:41.452Z,100538.50
2023-04-23T09:35:10.179Z,100536.34
2023-04-23T09:37:37.116Z,100532.44
2023-04-23T09:40:09.331Z,100529.38
2023-04-23T09:42:36.950Z,100523.81
2023-04-23T09:45:08.138Z,100514.28
2023-04-23T09:47:35.674Z,100515.03
2023-04-23T09:50:02.285Z,100523.50
2023-04-23T09:52:31.489Z,100519.59
2023-04-23T09:55:01.850Z,100522.53
2023-04-23T09:57:28.372Z,100519.13
2023-04-23T10:00:11.133Z,100520.97
2023-04-23T10:02:49.544Z,100519.09
2023-04-23T10:05:24.224Z,100520.19
2023-04-23T10:07:56.377Z,100508.81
2023-04-23T10:10:23.730Z,100514.75
2023-04-23T10:12:55.198Z,100517.28
2023-04-23T10:15:23.585Z,100521.25
2023-04-23T10:17:51.202Z,100513.91
2023-04-23T10:20:18.155Z,100510.63
2023-04-23T10:22:45.577Z,100511.53
2023-04-23T10:25:13.219Z,100506.88
2023-04-23T10:27:53.679Z,100504.88
2023-04-23T10:30:22.177Z,100512.00
2023-04-23T10:32:49.519Z,100521.28
2023-04-23T10:35:16.686Z,100519.63
2023-04-23T10:37:44.870Z,100490.22
2023-04-23T10:40:14.185Z,100488.06
2023-04-23T10:42:41.604Z,100496.31
2023-04-23T10:47:48.323Z,100497.41
2023-04-23T10:50:29.368Z,100499.25
2023-04-23T10:52:57.625Z,100495.75
2023-04-23T10:55:26.698Z,100482.44
2023-04-23T10:58:07.504Z,100481.69
2023-04-23T11:00:43.230Z,100477.75
2023-04-23T11:03:44.496Z,100476.13
2023-04-23T11:06:21.974Z,100470.09
2023-04-23T11:08:58.560Z,100476.28
2023-04-23T11:11:39.973Z,100480.97
2023-04-23T11:14:16.095Z,100477.56
2023-04-23T11:16:44.304Z,100478.88
2023-04-23T11:19:12.416Z,100478.31
2023-04-23T11:22:02.092Z,100470.78
2023-04-23T11:24:30.888Z,100482.13
2023-04-23T11:26:58.061Z,100470.13
2023-04-23T11:29:26.505Z,100467.06
2023-04-23T11:32:02.693Z,100461.50
2023-04-23T11:34:30.364Z,100461.66
2023-04-23T11:36:58.989Z,100459.88
2023-04-23T11:39:25.838Z,100459.06
2023-04-23T11:41:53.536Z,100455.44
2023-04-23T11:44:21.257Z,100455.53
2023-04-23T11:46:49.385Z,100456.03
2023-04-23T11:49:17.117Z,100450.31
2023-04-23T11:51:44.560Z,100454.09
2023-04-23T11:54:12.122Z,100447.66
2023-04-23T11:56:38.642Z,100447.66
2023-04-23T11:59:05.758Z,100447.94
2023-04-23T12:01:53.554Z,100441.34
2023-04-23T12:04:21.860Z,100451.56
2023-04-23T12:06:50.037Z,100448.22
2023-04-23T12:09:17.879Z,100447.31
2023-04-23T12:11:45.599Z,100447.53
2023-04-23T12:14:14.196Z,100441.97
2023-04-23T12:16:45.756Z,100448.44
2023-04-23T12:19:16.818Z,100442.84
2023-04-23T12:21:57.091Z,100449.16
2023-04-23T12:24:31.929Z,100437.97
2023-04-23T12:27:01.138Z,100443.16
2023-04-23T12:29:30.654Z,100430.59
2023-04-23T12:31:59.414Z,100440.19
2023-04-23T12:34:25.987Z,100436.28
2023-04-23T12:36:54.834Z,100427.63
2023-04-23T12:39:32.017Z,100429.97
2023-04-23T12:42:02.828Z,100432.56
2023-04-23T12:44:29.538Z,100425.44
2023-04-23T12:46:58.138Z,100425.19
2023-04-23T12:49:27.347Z,100431.84
2023-04-23T12:51:57.436Z,100418.53
2023-04-23T12:54:25.641Z,100416.09
2023-04-23T12:56:52.393Z,100413.03
2023-04-23T12:59:18.837Z,100416.44
2023-04-23T13:01:45.628Z,100408.50
2023-04-23T13:04:12.141Z,100411.09
2023-04-23T13:06:38.636Z,100414.47
2023-04-23T13:09:05.365Z,100409.00
2023-04-23T13:11:32.722Z,100402.31
2023-04-23T13:13:59.176Z,100402.19
2023-04-23T13:16:25.822Z,100404.94
2023-04-23T13:18:52.298Z,100397.25
2023-04-23T13:21:19.204Z,100395.16
2023-04-23T13:23:45.790Z,100395.28
2023-04-23T13:26:12.376Z,100387.81
2023-04-23T13:28:38.936Z,100385.69
2023-04-23T13:31:06.426Z,100382.94
2023-04-23T13:33:33.057Z,100379.69
2023-04-23T13:36:01.157Z,100380.06
2023-04-23T13:38:28.306Z,100357.25
2023-04-23T13:40:54.754Z,100360.50
2023-04-23T13:43:21.226Z,100344.19
2023-04-23T13:45:48.038Z,100351.06
2023-04-23T13:48:15.101Z,100349.97
2023-04-23T13:50:42.302Z,100352.19
2023-04-23T13:53:09.730Z,100342.81
2023-04-23T13:55:36.736Z,100340.41
2023-04-23T13:58:04.105Z,100336.06
2023-04-23T14:00:31.080Z,100325.94
2023-04-23T14:02:57.740Z,100318.03
2023-04-23T14:05:24.239Z,100311.81
2023-04-23T14:07:50.864Z,100301.34
2023-04-23T14:10:17.739Z,100301.03
2023-04-23T14:12:45.825Z,100304.25
2023-04-23T14:15:12.482Z,100311.06
2023-04-23T14:17:40.524Z,100298.91
2023-04-23T14:20:07.684Z,100294.25
2023-04-23T14:22:34.250Z,100286.06
2023-04-23T14:25:08.907Z,100297.75
2023-04-23T14:27:50.451Z,100295.03
2023-04-23T14:30:19.866Z,100294.06
2023-04-23T14:32:49.397Z,100289.34
2023-04-23T14:35:16.779Z,100286.72
2023-04-23T14:37:45.358Z,100281.81
2023-04-23T14:40:15.740Z,100275.09
2023-04-23T14:42:42.139Z,100277.06
2023-04-23T14:45:09.038Z,100279.75
2023-04-23T14:47:35.490Z,100281.66
2023-04-23T14:50:02.009Z,100277.25
2023-04-23T14:52:28.549Z,100278.72
2023-04-23T14:54:55.884Z,100279.97
2023-04-23T14:57:22.635Z,100277.63
2023-04-23T14:59:49.027Z,100283.22
2023-04-23T15:02:15.600Z,100290.72
2023-04-23T15:04:42.103Z,100300.84
2023-04-23T15:07:08.519Z,100317.47
2023-04-23T15:09:34.970Z,100318.72
2023-04-23T15:12:04.094Z,100322.50
2023-04-23T15:14:37.471Z,100317.50
2023-04-23T15:17:04.205Z,100309.56
2023-04-23T15:19:31.255Z,100285.69
2023-04-23T15:21:57.694Z,100295.44
2023-04-23T15:24:24.138Z,100294.69
2023-04-23T15:26:53.228Z,100297.00
2023-04-23T15:29:20.070Z,100284.72
2023-04-23T15:31:46.583Z,100287.19
2023-04-23T15:34:13.152Z,100291.47
2023-04-23T15:36:39.702Z,100288.06
2023-04-23T15:39:07.477Z,100275.81
2023-04-23T15:41:37.060Z,100280.59
2023-04-23T15:44:05.049Z,100278.91
2023-04-23T15:46:31.475Z,100279.13
2023-04-23T15:48:57.840Z,100273.28
2023-04-23T15:51:24.233Z,100267.47
2023-04-23T15:53:51.456Z,100256.50
2023-04-23T15:56:17.901Z,100250.59
2023-04-23T15:58:44.259Z,100244.53
2023-04-23T16:01:11.762Z,100236.56
2023-04-23T16:03:38.324Z,100234.59
2023-04-23T16:06:05.149Z,100228.78
2023-04-23T16:08:32.238Z,100231.56
2023-04-23T16:10:59.329Z,100235.06
2023-04-23T16:13:27.397Z,100244.38
2023-04-23T16:15:53.878Z,100250.22
2023-04-23T16:18:20.566Z,100243.69
2023-04-23T16:20:47.228Z,100239.19
2023-04-23T16:23:14.426Z,100245.72
2023-04-23T16:25:41.323Z,100238.59
2023-04-23T16:28:07.730Z,100239.34
2023-04-23T16:30:34.290Z,100238.09
2023-04-23T16:33:00.729Z,100237.19
2023-04-23T16:35:27.298Z,100229.47
2023-04-23T16:37:53.845Z,100231.47
2023-04-23T16:40:21.428Z,100220.69
2023-04-23T16:42:48.817Z,100219.84
2023-04-23T16:45:15.585Z,100219.19
2023-04-23T16:47:43.868Z,100213.84
2023-04-23T16:50:10.926Z,100218.47
2023-04-23T16:52:37.356Z,100222.19
2023-04-23T16:55:04.711Z,100225.13
2023-04-23T16:57:31.551Z,100230.97
2023-04-23T16:59:58.049Z,100241.69
2023-04-23T17:02:24.648Z,100274.69
2023-04-23T17:04:51.365Z,100282.38
2023-04-23T17:07:17.936Z,100299.56
2023-04-23T17:09:44.386Z,100280.78
2023-04-23T17:12:11.061Z,100272.19
2023-04-23T17:14:37.445Z,100268.34
2023-04-23T17:17:03.894Z,100257.66
2023-04-23T17:19:30.400Z,100247.94
2023-04-23T17:21:56.860Z,100240.97
2023-04-23T17:24:23.411Z,100222.28
2023-04-23T17:26:49.965Z,100205.44
2023-04-23T17:29:16.495Z,100198.56
2023-04-23T17:31:43.199Z,100173.63
2023-04-23T17:34:09.601Z,100155.25
2023-04-23T17:36:36.020Z,100175.63
2023-04-23T17:39:02.981Z,100182.41
2023-04-23T17:41:30.007Z,100174.03
2023-04-23T17:43:56.388Z,100171.63
2023-04-23T17:46:22.852Z,100161.56
2023-04-23T17:48:49.356Z,100160.19
2023-04-23T17:51:15.966Z,100156.56
2023-04-23T17:53:42.612Z,100142.84
2023-04-23T17:56:09.160Z,100153.00
2023-04-23T17:58:36.126Z,100153.91
2023-04-23T18:01:04.723Z,100160.19
2023-04-23T18:03:32.180Z,100159.13
2023-04-23T18:05:58.886Z,100148.97
2023-04-23T18:08:25.430Z,100151.47
2023-04-23T18:10:51.916Z,100153.06
2023-04-23T18:13:18.365Z,100169.09
2023-04-23T18:15:49.655Z,100178.09
2023-04-23T18:18:17.128Z,100170.84
2023-04-23T18:20:44.248Z,100169.25
2023-04-23T18:23:11.673Z,100164.28
2023-04-23T18:25:38.333Z,100150.06
2023-04-23T18:28:04.996Z,100154.81
2023-04-23T18:30:31.423Z,100139.78
2023-04-23T18:33:26.118Z,100148.56
2023-04-23T18:35:55.925Z,100147.34
2023-04-23T18:38:31.857Z,100153.22
2023-04-23T18:41:02.627Z,100157.59
2023-04-23T18:43:29.174Z,100150.50
2023-04-23T18:45:55.965Z,100132.84
2023-04-23T18:48:34.513Z,100109.47
2023-04-23T18:51:33.137Z,100089.19
2023-04-23T18:54:01.684Z,100080.00
2023-04-23T18:56:28.124Z,100100.88
2023-04-23T18:58:54.456Z,100102.00
2023-04-23T19:01:20.861Z,100103.06
2023-04-23T19:03:47.623Z,100113.28
2023-04-23T19:06:13.966Z,100104.63
2023-04-23T19:08:42.225Z,100097.88
2023-04-23T19:11:08.558Z,100097.06
2023-04-23T19:13:34.839Z,100094.50
2023-04-23T19:16:01.212Z,100092.97
2023-04-23T19:18:27.507Z,100101.91
2023-04-23T19:20:53.824Z,100100.31
2023-04-23T19:23:20.182Z,100104.72
2023-04-23T19:25:46.477Z,100098.41
2023-04-23T19:28:13.100Z,100091.63
2023-04-23T19:30:39.445Z,100087.41
2023-04-23T19:33:05.869Z,100083.88
2023-04-23T19:35:32.308Z,100083.69
2023-04-23T19:37:58.961Z,100080.97
2023-04-23T19:40:25.251Z,100078.94
2023-04-23T19:42:51.698Z,100077.84
2023-04-23T19:45:18.537Z,100080.47
2023-04-23T19:47:44.945Z,100083.66
2023-04-23T19:50:12.308Z,100083.03
2023-04-23T19:52:38.684Z,100076.25
2023-04-23T19:55:05.514Z,100072.25
2023-04-23T19:57:31.989Z,100074.69
2023-04-23T19:59:58.303Z,100064.81
2023-04-23T20:02:24.727Z,100075.75
2023-04-23T20:04:51.225Z,100081.09
2023-04-23T20:07:17.566Z,100091.72
2023-04-23T20:09:44.349Z,100098.56
2023-04-23T20:12:10.961Z,100102.41
2023-04-23T20:14:37.450Z,100097.41
2023-04-23T20:17:03.851Z,100089.97
2023-04-23T20:19:31.263Z,100084.19
2023-04-23T20:21:57.675Z,100080.06
2023-04-23T20:24:24.030Z,100076.06
2023-04-23T20:26:50.932Z,100069.56
2023-04-23T20:29:17.245Z,100068.69
2023-04-23T20:31:43.646Z,100063.38
2023-04-23T20:34:10.976Z,100072.91
2023-04-23T20:36:38.896Z,100062.13
2023-04-23T20:39:05.245Z,100056.59
2023-04-23T20:41:32.109Z,100060.09
2023-04-23T20:43:58.682Z,100063.78
2023-04-23T20:46:25.378Z,100067.09
2023-04-23T20:48:55.389Z,100066.63
2023-04-23T20:51:22.502Z,100047.28
2023-04-23T20:53:49.170Z,100046.72
2023-04-23T20:56:15.644Z,100032.78
2023-04-23T20:58:41.973Z,100016.78
2023-04-23T21:01:11.262Z,100007.81
2023-04-23T21:03:38.233Z,99995.50
2023-04-23T21:06:05.380Z,99989.91
2023-04-23T21:08:31.844Z,99992.88
2023-04-23T21:10:58.239Z,99982.50
2023-04-23T21:13:25.010Z,99982.13
2023-04-23T21:15:51.735Z,99974.66
2023-04-23T21:18:18.278Z,99967.94
2023-04-23T21:20:45.768Z,99970.75
2023-04-23T21:23:12.226Z,99969.22
2023-04-23T21:25:38.916Z,99977.16
2023-04-23T21:28:05.363Z,99975.16
2023-04-23T21:30:31.870Z,99967.88
2023-04-23T21:32:58.253Z,99977.38
2023-04-23T21:35:24.613Z,99968.22
2023-04-23T21:37:50.926Z,99968.06
2023-04-23T21:40:17.253Z,99962.31
2023-04-23T21:42:44.810Z,99955.00
2023-04-23T21:45:11.224Z,99955.69
2023-04-23T21:47:37.583Z,99954.31
2023-04-23T21:50:04.745Z,99939.25
2023-04-23T21:52:31.206Z,99930.03
2023-04-23T21:54:57.523Z,99919.44
2023-04-23T21:57:23.863Z,99921.25
2023-04-23T21:59:50.409Z,99911.53
2023-04-23T22:02:16.882Z,99919.91
2023-04-23T22:04:44.676Z,99923.22
2023-04-23T22:07:13.592Z,99918.78
2023-04-23T22:09:40.835Z,99915.81
2023-04-23T22:12:08.031Z,99905.78
2023-04-23T22:14:34.679Z,99901.03
2023-04-23T22:17:02.047Z,99892.47
2023-04-23T22:19:28.716Z,99892.38
2023-04-23T22:21:55.218Z,99884.53
2023-04-23T22:24:21.514Z,99875.47
2023-04-23T22:26:47.882Z,99875.16
2023-04-23T22:29:14.183Z,99866.47
2023-04-23T22:31:40.547Z,99871.16
2023-04-23T22:34:07.370Z,99874.19
2023-04-23T22:36:34.490Z,99871.84
2023-04-23T22:39:01.829Z,99868.69
2023-04-23T22:41:28.127Z,99871.38
2023-04-23T22:43:54.415Z,99858.75
2023-04-23T22:46:21.039Z,99865.19
2023-04-23T22:48:47.696Z,99860.75
2023-04-23T22:51:14.356Z,99857.06
2023-04-23T22:53:40.747Z,99857.00
2023-04-23T22:56:07.481Z,99854.13
2023-04-23T22:58:33.780Z,99847.72
2023-04-23T23:01:00.381Z,99845.78
2023-04-23T23:03:26.901Z,99840.66
2023-04-23T23:05:53.381Z,99842.91
2023-04-23T23:08:19.692Z,99851.63
2023-04-23T23:10:45.962Z,99843.13
2023-04-23T23:13:12.231Z,99839.75
2023-04-23T23:15:38.754Z,99836.44
2023-04-23T23:18:06.103Z,99831.56
2023-04-23T23:20:32.475Z,99840.81
2023-04-23T23:22:58.769Z,99840.69
2023-04-23T23:25:25.051Z,99831.69
2023-04-23T23:27:51.365Z,99836.16
2023-04-23T23:30:17.670Z,99827.91
2023-04-23T23:32:44.055Z,99828.44
2023-04-23T23:35:10.390Z,99828.97
2023-04-23T23:37:36.679Z,99831.94
2023-04-23T23:40:05.481Z,99831.44
2023-04-23T23:42:31.867Z,99831.34
2023-04-23T23:44:58.186Z,99839.16
2023-04-23T23:47:24.479Z,99832.97
2023-04-23T23:49:50.852Z,99829.97
2023-04-23T23:52:17.140Z,99826.03
2023-04-23T23:54:43.455Z,99825.53
2023-04-23T23:57:10.077Z,99822.91
2023-04-23T23:59:36.535Z,99825.72
